Ammie — WDF8286 — position and weather

sailwx.info

Track history (hours):
 
Tides and Currents Weather Stations Pressure Air Temp Water Temp Dewpoint Dewpoint Depression Visibility Wind Speed Wind Dir Waves Ship Positions

Ammie

Owner: Enterprise Marine Services, LLC, San Antonio, TX. More information available from US FCC via Universal Licensing System and Coast Guard Vessel Documentation Center.

Last reported at 2017-Nov-19 05:01 UTC. Time now 2017-Nov-19 05:09 UTC.
Position N 30°02' W 093°14'.

Length 30 m; draft 3 m.

Type: Tug. MMSI: 367448570.

Date/timePositionNaut miles runAvg speedWind from/ knotsBaromVisibWave heightAir tempDewpointWater temp
2017-Nov-19 05:01N 30°02' W 093°14'0 0.3
2017-Nov-19 04:30N 30°02' W 093°14'0 0.4
2017-Nov-19 04:00N 30°01' W 093°14'2 3.4
2017-Nov-19 03:30N 29°60' W 093°13'1 2.0
2017-Nov-19 03:00N 29°59' W 093°13'2 4.3
2017-Nov-19 02:30N 29°58' W 093°11'43 4.5
2017-Nov-18 16:57N 29°51' W 092°22'2 4.7
2017-Nov-18 16:30N 29°50' W 092°19'2 4.4
2017-Nov-18 16:00N 29°49' W 092°17'2 4.9
2017-Nov-18 15:30N 29°48' W 092°15'2 4.3
2017-Nov-18 15:00N 29°47' W 092°13'1 1.2
2017-Nov-18 14:30N 29°47' W 092°12'1 2.2
2017-Nov-18 14:01N 29°47' W 092°11'2 3.6
2017-Nov-18 13:30N 29°47' W 092°09'2 4.9
2017-Nov-18 13:00N 29°48' W 092°06'2 4.6
2017-Nov-18 12:30N 29°49' W 092°04'2 4.2
2017-Nov-18 12:01N 29°49' W 092°01'60 4.1
2017-Nov-17 21:20N 29°33' W 090°55'2 5.7
2017-Nov-17 20:59N 29°32' W 090°53'2 4.8
2017-Nov-17 20:30N 29°32' W 090°50'3 5.3
2017-Nov-17 20:00N 29°32' W 090°47'1 2.8
2017-Nov-17 19:30N 29°33' W 090°46'0 0.0
2017-Nov-17 19:00N 29°33' W 090°46'0 0.2
2017-Nov-17 18:30N 29°33' W 090°46'0 0.0
2017-Nov-17 18:00N 29°33' W 090°46'0 0.3
2017-Nov-17 17:30N 29°33' W 090°45'1 1.9
2017-Nov-17 17:00N 29°34' W 090°45'2 3.8
2017-Nov-17 16:30N 29°35' W 090°43'2 4.0
2017-Nov-17 16:00N 29°37' W 090°42'2 3.7
2017-Nov-17 15:30N 29°36' W 090°40'2 4.3
2017-Nov-17 15:00N 29°35' W 090°38'2 4.7
2017-Nov-17 14:30N 29°35' W 090°36'2 4.0
2017-Nov-17 14:00N 29°34' W 090°33'2 4.6
2017-Nov-17 13:29N 29°34' W 090°31'1 1.7
2017-Nov-17 12:39N 29°34' W 090°29'0 0.0
2017-Nov-17 12:30N 29°34' W 090°29'0 0.0
2017-Nov-17 12:00N 29°34' W 090°29'0 0.0
2017-Nov-17 11:04N 29°34' W 090°29'0 0.0
2017-Nov-17 11:00N 29°34' W 090°29'0 0.0
2017-Nov-17 10:26N 29°34' W 090°29'0 0.0
2017-Nov-17 09:59N 29°34' W 090°29'0 0.0
2017-Nov-17 09:29N 29°34' W 090°29'0 0.0
2017-Nov-17 08:59N 29°34' W 090°29'0 0.0
2017-Nov-17 08:24N 29°34' W 090°29'0 0.0
2017-Nov-17 07:58N 29°34' W 090°29'0 0.0
2017-Nov-17 07:14N 29°34' W 090°29'  
2017-Nov-11 09:15N 29°34' W 090°23'1 3.6
2017-Nov-11 08:54N 29°33' W 090°25'1 1.5
2017-Nov-11 08:12N 29°33' W 090°26'1 2.2
2017-Nov-11 07:56N 29°33' W 090°26'1 2.9
2017-Nov-11 07:26N 29°33' W 090°28'2 5.0
2017-Nov-11 07:01N 29°34' W 090°30'2 4.8
2017-Nov-11 06:30N 29°34' W 090°33'2 4.8
2017-Nov-11 06:01N 29°35' W 090°36'2 4.8
2017-Nov-11 05:31N 29°35' W 090°38'2 4.7
2017-Nov-11 05:01N 29°36' W 090°41'1 2.9
2017-Nov-11 04:30N 29°36' W 090°43'2 3.4
2017-Nov-11 04:01N 29°35' W 090°43'1 2.7
2017-Nov-11 03:31N 29°34' W 090°44'2 3.1
2017-Nov-11 03:01N 29°33' W 090°45'0 0.2
2017-Nov-11 02:31N 29°33' W 090°46'0 0.0
2017-Nov-11 02:01N 29°33' W 090°46'0 0.5
2017-Nov-11 01:30N 29°32' W 090°46'2 3.8
2017-Nov-11 01:01N 29°32' W 090°48'5 4.5
2017-Nov-10 23:53N 29°33' W 090°54'2 5.1
2017-Nov-10 23:28N 29°34' W 090°56'54 2.9
2017-Nov-10 04:56N 29°51' W 091°54'2 4.4
2017-Nov-10 04:31N 29°51' W 091°56'2 4.6
2017-Nov-10 04:00N 29°50' W 091°59'2 4.7
2017-Nov-10 03:30N 29°49' W 092°02'2 4.7
2017-Nov-10 03:01N 29°48' W 092°04'2 4.9
2017-Nov-10 02:31N 29°48' W 092°07'2 4.8
2017-Nov-10 02:00N 29°47' W 092°09'2 4.4
2017-Nov-10 01:30N 29°47' W 092°12'1 2.3
2017-Nov-10 01:00N 29°47' W 092°13'1 2.2
2017-Nov-10 00:31N 29°48' W 092°14'0 0.0
2017-Nov-10 00:00N 29°48' W 092°14'2 3.3
2017-Nov-09 23:31N 29°49' W 092°16'2 4.8
2017-Nov-09 23:01N 29°50' W 092°18'3 4.6
2017-Nov-09 22:26N 29°51' W 092°21'38 3.0
2017-Nov-09 09:35N 29°56' W 093°05'1 3.6
2017-Nov-09 09:21N 29°56' W 093°06'1 1.9
2017-Nov-09 08:58N 29°56' W 093°07'2 3.4
2017-Nov-09 08:31N 29°56' W 093°08'2 3.9
2017-Nov-09 08:00N 29°57' W 093°10'2 4.5
2017-Nov-09 07:31N 29°59' W 093°12'2 4.4
2017-Nov-09 07:00N 30°00' W 093°14'2 3.9
2017-Nov-09 06:31N 30°02' W 093°15'2 3.7
2017-Nov-09 06:01N 30°04' W 093°16'2 4.4
2017-Nov-09 05:30N 30°05' W 093°18'1 1.7
2017-Nov-09 05:01N 30°06' W 093°18'  
Track history (hours):
 
Tides and Currents Weather Stations Pressure Air Temp Water Temp Dewpoint Dewpoint Depression Visibility Wind Speed Wind Dir Waves Ship Positions

Ammie

Owner: Enterprise Marine Services, LLC, San Antonio, TX. More information available from US FCC via Universal Licensing System and Coast Guard Vessel Documentation Center.

Last reported at 2017-Nov-19 05:01 UTC. Time now 2017-Nov-19 05:09 UTC.
Position N 30°02' W 093°14'.

Length 30 m; draft 3 m.

Type: Tug. MMSI: 367448570.

Date/timePositionNaut miles runAvg speedWind from/ knotsBaromVisibWave heightAir tempDewpointWater temp
2017-Nov-19 05:01N 30°02' W 093°14'0 0.3
2017-Nov-19 04:30N 30°02' W 093°14'0 0.4
2017-Nov-19 04:00N 30°01' W 093°14'2 3.4
2017-Nov-19 03:30N 29°60' W 093°13'1 2.0
2017-Nov-19 03:00N 29°59' W 093°13'2 4.3
2017-Nov-19 02:30N 29°58' W 093°11'43 4.5
2017-Nov-18 16:57N 29°51' W 092°22'2 4.7
2017-Nov-18 16:30N 29°50' W 092°19'2 4.4
2017-Nov-18 16:00N 29°49' W 092°17'2 4.9
2017-Nov-18 15:30N 29°48' W 092°15'2 4.3
2017-Nov-18 15:00N 29°47' W 092°13'1 1.2
2017-Nov-18 14:30N 29°47' W 092°12'1 2.2
2017-Nov-18 14:01N 29°47' W 092°11'2 3.6
2017-Nov-18 13:30N 29°47' W 092°09'2 4.9
2017-Nov-18 13:00N 29°48' W 092°06'2 4.6
2017-Nov-18 12:30N 29°49' W 092°04'2 4.2
2017-Nov-18 12:01N 29°49' W 092°01'60 4.1
2017-Nov-17 21:20N 29°33' W 090°55'2 5.7
2017-Nov-17 20:59N 29°32' W 090°53'2 4.8
2017-Nov-17 20:30N 29°32' W 090°50'3 5.3
2017-Nov-17 20:00N 29°32' W 090°47'1 2.8
2017-Nov-17 19:30N 29°33' W 090°46'0 0.0
2017-Nov-17 19:00N 29°33' W 090°46'0 0.2
2017-Nov-17 18:30N 29°33' W 090°46'0 0.0
2017-Nov-17 18:00N 29°33' W 090°46'0 0.3
2017-Nov-17 17:30N 29°33' W 090°45'1 1.9
2017-Nov-17 17:00N 29°34' W 090°45'2 3.8
2017-Nov-17 16:30N 29°35' W 090°43'2 4.0
2017-Nov-17 16:00N 29°37' W 090°42'2 3.7
2017-Nov-17 15:30N 29°36' W 090°40'2 4.3
2017-Nov-17 15:00N 29°35' W 090°38'2 4.7
2017-Nov-17 14:30N 29°35' W 090°36'2 4.0
2017-Nov-17 14:00N 29°34' W 090°33'2 4.6
2017-Nov-17 13:29N 29°34' W 090°31'1 1.7
2017-Nov-17 12:39N 29°34' W 090°29'0 0.0
2017-Nov-17 12:30N 29°34' W 090°29'0 0.0
2017-Nov-17 12:00N 29°34' W 090°29'0 0.0
2017-Nov-17 11:04N 29°34' W 090°29'0 0.0
2017-Nov-17 11:00N 29°34' W 090°29'0 0.0
2017-Nov-17 10:26N 29°34' W 090°29'0 0.0
2017-Nov-17 09:59N 29°34' W 090°29'0 0.0
2017-Nov-17 09:29N 29°34' W 090°29'0 0.0
2017-Nov-17 08:59N 29°34' W 090°29'0 0.0
2017-Nov-17 08:24N 29°34' W 090°29'0 0.0
2017-Nov-17 07:58N 29°34' W 090°29'0 0.0
2017-Nov-17 07:14N 29°34' W 090°29'  
2017-Nov-11 09:15N 29°34' W 090°23'1 3.6
2017-Nov-11 08:54N 29°33' W 090°25'1 1.5
2017-Nov-11 08:12N 29°33' W 090°26'1 2.2
2017-Nov-11 07:56N 29°33' W 090°26'1 2.9
2017-Nov-11 07:26N 29°33' W 090°28'2 5.0
2017-Nov-11 07:01N 29°34' W 090°30'2 4.8
2017-Nov-11 06:30N 29°34' W 090°33'2 4.8
2017-Nov-11 06:01N 29°35' W 090°36'2 4.8
2017-Nov-11 05:31N 29°35' W 090°38'2 4.7
2017-Nov-11 05:01N 29°36' W 090°41'1 2.9
2017-Nov-11 04:30N 29°36' W 090°43'2 3.4
2017-Nov-11 04:01N 29°35' W 090°43'1 2.7
2017-Nov-11 03:31N 29°34' W 090°44'2 3.1
2017-Nov-11 03:01N 29°33' W 090°45'0 0.2
2017-Nov-11 02:31N 29°33' W 090°46'0 0.0
2017-Nov-11 02:01N 29°33' W 090°46'0 0.5
2017-Nov-11 01:30N 29°32' W 090°46'2 3.8
2017-Nov-11 01:01N 29°32' W 090°48'5 4.5
2017-Nov-10 23:53N 29°33' W 090°54'2 5.1
2017-Nov-10 23:28N 29°34' W 090°56'54 2.9
2017-Nov-10 04:56N 29°51' W 091°54'2 4.4
2017-Nov-10 04:31N 29°51' W 091°56'2 4.6
2017-Nov-10 04:00N 29°50' W 091°59'2 4.7
2017-Nov-10 03:30N 29°49' W 092°02'2 4.7
2017-Nov-10 03:01N 29°48' W 092°04'2 4.9
2017-Nov-10 02:31N 29°48' W 092°07'2 4.8
2017-Nov-10 02:00N 29°47' W 092°09'2 4.4
2017-Nov-10 01:30N 29°47' W 092°12'1 2.3
2017-Nov-10 01:00N 29°47' W 092°13'1 2.2
2017-Nov-10 00:31N 29°48' W 092°14'0 0.0
2017-Nov-10 00:00N 29°48' W 092°14'2 3.3
2017-Nov-09 23:31N 29°49' W 092°16'2 4.8
2017-Nov-09 23:01N 29°50' W 092°18'3 4.6
2017-Nov-09 22:26N 29°51' W 092°21'38 3.0
2017-Nov-09 09:35N 29°56' W 093°05'1 3.6
2017-Nov-09 09:21N 29°56' W 093°06'1 1.9
2017-Nov-09 08:58N 29°56' W 093°07'2 3.4
2017-Nov-09 08:31N 29°56' W 093°08'2 3.9
2017-Nov-09 08:00N 29°57' W 093°10'2 4.5
2017-Nov-09 07:31N 29°59' W 093°12'2 4.4
2017-Nov-09 07:00N 30°00' W 093°14'2 3.9
2017-Nov-09 06:31N 30°02' W 093°15'2 3.7
2017-Nov-09 06:01N 30°04' W 093°16'2 4.4
2017-Nov-09 05:30N 30°05' W 093°18'1 1.7
2017-Nov-09 05:01N 30°06' W 093°18'  

Dump ship's entire track history